sensor_id;sensor_type;location;lat;lon;timestamp;pressure;altitude;pressure_sealevel;temperature;humidity
24302;BME280;12421;49.732;20.078;2024-03-02T00:02:01;96224.64;;;4.11;82.72
24302;BME280;12421;49.732;20.078;2024-03-02T00:12:04;96231.19;;;3.95;82.89
24302;BME280;12421;49.732;20.078;2024-03-02T00:22:08;96229.44;;;3.91;83.49
24302;BME280;12421;49.732;20.078;2024-03-02T00:32:12;96223.86;;;3.80;83.88
24302;BME280;12421;49.732;20.078;2024-03-02T00:42:17;96219.46;;;3.67;84.32
24302;BME280;12421;49.732;20.078;2024-03-02T00:52:20;96219.61;;;3.62;84.19
24302;BME280;12421;49.732;20.078;2024-03-02T01:02:23;96213.40;;;3.72;83.96
24302;BME280;12421;49.732;20.078;2024-03-02T01:12:26;96206.59;;;3.61;83.70
24302;BME280;12421;49.732;20.078;2024-03-02T01:22:29;96207.19;;;3.42;84.00
24302;BME280;12421;49.732;20.078;2024-03-02T01:32:33;96208.63;;;3.20;84.20
24302;BME280;12421;49.732;20.078;2024-03-02T01:42:37;96200.02;;;3.01;84.68
24302;BME280;12421;49.732;20.078;2024-03-02T01:52:40;96193.17;;;3.17;85.10
24302;BME280;12421;49.732;20.078;2024-03-02T02:02:44;96181.95;;;3.24;84.66
24302;BME280;12421;49.732;20.078;2024-03-02T02:12:48;96180.48;;;3.10;84.43
24302;BME280;12421;49.732;20.078;2024-03-02T02:23:04;96175.61;;;2.81;83.98
24302;BME280;12421;49.732;20.078;2024-03-02T02:33:13;96175.77;;;2.54;85.00
24302;BME280;12421;49.732;20.078;2024-03-02T02:43:16;96174.38;;;2.52;85.54
24302;BME280;12421;49.732;20.078;2024-03-02T02:53:20;96163.27;;;2.50;85.90
24302;BME280;12421;49.732;20.078;2024-03-02T03:03:23;96165.80;;;2.65;86.18
24302;BME280;12421;49.732;20.078;2024-03-02T03:13:26;96170.44;;;2.58;85.28
24302;BME280;12421;49.732;20.078;2024-03-02T03:23:30;96163.31;;;2.53;86.70
24302;BME280;12421;49.732;20.078;2024-03-02T03:33:33;96152.33;;;2.48;86.26
24302;BME280;12421;49.732;20.078;2024-03-02T03:43:36;96155.00;;;2.56;87.46
24302;BME280;12421;49.732;20.078;2024-03-02T03:53:39;96152.95;;;2.62;87.46
24302;BME280;12421;49.732;20.078;2024-03-02T04:03:42;96147.41;;;2.60;88.28
24302;BME280;12421;49.732;20.078;2024-03-02T04:13:45;96157.58;;;2.54;87.44
24302;BME280;12421;49.732;20.078;2024-03-02T04:23:48;96158.41;;;2.49;87.82
24302;BME280;12421;49.732;20.078;2024-03-02T04:33:52;96154.62;;;2.50;87.70
24302;BME280;12421;49.732;20.078;2024-03-02T04:43:55;96149.95;;;2.53;87.34
24302;BME280;12421;49.732;20.078;2024-03-02T04:53:58;96161.73;;;2.52;87.63
24302;BME280;12421;49.732;20.078;2024-03-02T05:04:02;96164.95;;;2.68;87.22
24302;BME280;12421;49.732;20.078;2024-03-02T05:14:06;96171.58;;;2.72;86.69
24302;BME280;12421;49.732;20.078;2024-03-02T05:24:09;96176.98;;;2.76;86.01
24302;BME280;12421;49.732;20.078;2024-03-02T05:34:12;96182.86;;;2.51;85.47
24302;BME280;12421;49.732;20.078;2024-03-02T05:44:16;96176.56;;;2.44;86.15
24302;BME280;12421;49.732;20.078;2024-03-02T05:54:19;96185.74;;;2.44;86.73
24302;BME280;12421;49.732;20.078;2024-03-02T06:04:22;96205.59;;;2.57;87.53
24302;BME280;12421;49.732;20.078;2024-03-02T06:14:26;96212.16;;;2.77;88.36
24302;BME280;12421;49.732;20.078;2024-03-02T06:24:29;96213.92;;;3.04;88.47
24302;BME280;12421;49.732;20.078;2024-03-02T06:34:32;96216.56;;;3.42;88.22
24302;BME280;12421;49.732;20.078;2024-03-02T06:44:36;96210.84;;;3.85;88.15
24302;BME280;12421;49.732;20.078;2024-03-02T06:54:39;96218.77;;;4.25;87.50
24302;BME280;12421;49.732;20.078;2024-03-02T07:04:42;96220.55;;;4.60;86.94
24302;BME280;12421;49.732;20.078;2024-03-02T07:14:46;96225.25;;;4.86;87.33
24302;BME280;12421;49.732;20.078;2024-03-02T07:25:14;96229.21;;;5.22;87.63
24302;BME280;12421;49.732;20.078;2024-03-02T07:35:20;96229.10;;;5.71;87.68
24302;BME280;12421;49.732;20.078;2024-03-02T07:45:25;96238.91;;;6.07;87.44
24302;BME280;12421;49.732;20.078;2024-03-02T07:55:28;96242.48;;;6.53;87.28
24302;BME280;12421;49.732;20.078;2024-03-02T08:05:31;96243.25;;;6.93;86.10
24302;BME280;12421;49.732;20.078;2024-03-02T08:15:35;96245.59;;;7.26;85.61
24302;BME280;12421;49.732;20.078;2024-03-02T08:25:38;96256.25;;;7.43;84.97
24302;BME280;12421;49.732;20.078;2024-03-02T08:35:41;96262.48;;;7.82;85.00
24302;BME280;12421;49.732;20.078;2024-03-02T08:45:45;96266.92;;;8.06;84.07
24302;BME280;12421;49.732;20.078;2024-03-02T08:55:48;96261.09;;;8.28;83.60
24302;BME280;12421;49.732;20.078;2024-03-02T09:05:52;96263.09;;;8.36;82.64
24302;BME280;12421;49.732;20.078;2024-03-02T09:15:55;96263.98;;;8.61;83.10
24302;BME280;12421;49.732;20.078;2024-03-02T09:25:58;96270.01;;;8.79;82.23
24302;BME280;12421;49.732;20.078;2024-03-02T09:36:02;96281.94;;;8.90;82.34
24302;BME280;12421;49.732;20.078;2024-03-02T09:46:07;96292.77;;;9.25;81.84
24302;BME280;12421;49.732;20.078;2024-03-02T09:56:12;96297.42;;;9.70;80.71
24302;BME280;12421;49.732;20.078;2024-03-02T10:06:24;96301.08;;;10.10;80.15
24302;BME280;12421;49.732;20.078;2024-03-02T10:16:28;96294.09;;;10.45;79.08
24302;BME280;12421;49.732;20.078;2024-03-02T10:26:34;96287.42;;;10.69;77.77
24302;BME280;12421;49.732;20.078;2024-03-02T10:36:41;96279.64;;;10.87;77.50
24302;BME280;12421;49.732;20.078;2024-03-02T10:46:45;96276.48;;;11.03;76.76
24302;BME280;12421;49.732;20.078;2024-03-02T10:56:50;96271.38;;;11.03;76.34
24302;BME280;12421;49.732;20.078;2024-03-02T11:07:10;96263.73;;;11.07;76.48
24302;BME280;12421;49.732;20.078;2024-03-02T11:17:15;96259.95;;;11.04;76.31
24302;BME280;12421;49.732;20.078;2024-03-02T11:37:52;96247.48;;;12.01;76.01
24302;BME280;12421;49.732;20.078;2024-03-02T11:47:57;96244.91;;;12.35;75.51
24302;BME280;12421;49.732;20.078;2024-03-02T11:58:03;96244.35;;;12.66;74.03
24302;BME280;12421;49.732;20.078;2024-03-02T12:08:07;96240.52;;;12.93;73.62
24302;BME280;12421;49.732;20.078;2024-03-02T12:18:11;96234.56;;;13.36;72.62
24302;BME280;12421;49.732;20.078;2024-03-02T12:28:14;96230.05;;;13.60;70.78
24302;BME280;12421;49.732;20.078;2024-03-02T12:38:18;96231.75;;;13.67;70.58
24302;BME280;12421;49.732;20.078;2024-03-02T12:48:23;96227.73;;;14.02;70.59
24302;BME280;12421;49.732;20.078;2024-03-02T12:58:26;96226.98;;;14.13;69.92
24302;BME280;12421;49.732;20.078;2024-03-02T13:08:30;96221.85;;;14.23;69.89
24302;BME280;12421;49.732;20.078;2024-03-02T13:18:33;96212.20;;;14.41;69.43
24302;BME280;12421;49.732;20.078;2024-03-02T13:28:37;96203.65;;;14.52;68.81
24302;BME280;12421;49.732;20.078;2024-03-02T13:38:40;96205.16;;;14.81;67.95
24302;BME280;12421;49.732;20.078;2024-03-02T13:48:44;96201.88;;;15.05;66.56
24302;BME280;12421;49.732;20.078;2024-03-02T13:58:47;96201.52;;;15.10;65.34
24302;BME280;12421;49.732;20.078;2024-03-02T14:08:52;96209.02;;;15.04;65.14
24302;BME280;12421;49.732;20.078;2024-03-02T14:18:55;96208.48;;;14.69;64.60
24302;BME280;12421;49.732;20.078;2024-03-02T14:28:59;96211.90;;;14.39;65.87
24302;BME280;12421;49.732;20.078;2024-03-02T14:39:06;96215.73;;;14.21;66.03
24302;BME280;12421;49.732;20.078;2024-03-02T14:49:13;96211.60;;;14.08;66.68
24302;BME280;12421;49.732;20.078;2024-03-02T14:59:17;96200.61;;;14.05;66.41
24302;BME280;12421;49.732;20.078;2024-03-02T15:09:20;96192.98;;;13.76;62.03
24302;BME280;12421;49.732;20.078;2024-03-02T15:19:24;96197.55;;;13.67;64.06
24302;BME280;12421;49.732;20.078;2024-03-02T15:29:28;96194.66;;;13.53;64.90
24302;BME280;12421;49.732;20.078;2024-03-02T15:39:34;96202.24;;;13.33;64.57
24302;BME280;12421;49.732;20.078;2024-03-02T15:49:37;96205.23;;;13.06;61.83
24302;BME280;12421;49.732;20.078;2024-03-02T15:59:43;96199.38;;;12.85;63.29
24302;BME280;12421;49.732;20.078;2024-03-02T16:09:47;96195.81;;;12.46;64.21
24302;BME280;12421;49.732;20.078;2024-03-02T16:19:50;96200.91;;;12.11;64.65
24302;BME280;12421;49.732;20.078;2024-03-02T16:29:54;96194.73;;;11.88;62.92
24302;BME280;12421;49.732;20.078;2024-03-02T16:39:58;96191.23;;;11.87;62.48
24302;BME280;12421;49.732;20.078;2024-03-02T16:50:01;96203.46;;;11.77;62.86
24302;BME280;12421;49.732;20.078;2024-03-02T17:00:07;96213.43;;;11.59;62.18
24302;BME280;12421;49.732;20.078;2024-03-02T17:10:11;96224.79;;;11.40;61.84
24302;BME280;12421;49.732;20.078;2024-03-02T17:20:15;96234.64;;;11.40;61.28
24302;BME280;12421;49.732;20.078;2024-03-02T17:30:18;96235.48;;;11.41;61.86
24302;BME280;12421;49.732;20.078;2024-03-02T17:40:23;96241.65;;;11.20;62.56
24302;BME280;12421;49.732;20.078;2024-03-02T17:50:29;96236.40;;;11.04;63.05
24302;BME280;12421;49.732;20.078;2024-03-02T18:00:32;96231.80;;;10.83;63.79
24302;BME280;12421;49.732;20.078;2024-03-02T18:10:35;96234.70;;;10.72;63.81
24302;BME280;12421;49.732;20.078;2024-03-02T18:20:51;96232.08;;;10.63;64.20
24302;BME280;12421;49.732;20.078;2024-03-02T18:30:55;96233.09;;;10.42;64.73
24302;BME280;12421;49.732;20.078;2024-03-02T18:40:58;96234.44;;;10.19;65.18
24302;BME280;12421;49.732;20.078;2024-03-02T18:51:07;96232.26;;;10.06;65.65
24302;BME280;12421;49.732;20.078;2024-03-02T19:01:10;96224.29;;;9.82;66.46
24302;BME280;12421;49.732;20.078;2024-03-02T19:11:18;96227.70;;;9.78;66.86
24302;BME280;12421;49.732;20.078;2024-03-02T19:21:24;96223.69;;;10.04;66.46
24302;BME280;12421;49.732;20.078;2024-03-02T19:31:27;96215.90;;;10.08;66.78
24302;BME280;12421;49.732;20.078;2024-03-02T19:41:30;96218.25;;;9.86;67.65
24302;BME280;12421;49.732;20.078;2024-03-02T19:51:36;96216.17;;;9.67;68.09
24302;BME280;12421;49.732;20.078;2024-03-02T20:01:41;96214.73;;;9.49;68.68
24302;BME280;12421;49.732;20.078;2024-03-02T20:11:44;96222.12;;;9.29;69.04
24302;BME280;12421;49.732;20.078;2024-03-02T20:21:48;96221.49;;;8.93;69.77
24302;BME280;12421;49.732;20.078;2024-03-02T20:31:52;96219.08;;;8.68;70.39
24302;BME280;12421;49.732;20.078;2024-03-02T20:41:56;96219.05;;;8.47;71.26
24302;BME280;12421;49.732;20.078;2024-03-02T20:52:00;96214.29;;;8.37;72.03
24302;BME280;12421;49.732;20.078;2024-03-02T21:02:06;96211.87;;;8.21;72.67
24302;BME280;12421;49.732;20.078;2024-03-02T21:12:11;96207.28;;;8.09;73.25
24302;BME280;12421;49.732;20.078;2024-03-02T21:22:15;96215.70;;;8.07;73.74
24302;BME280;12421;49.732;20.078;2024-03-02T21:32:19;96219.34;;;7.96;74.12
24302;BME280;12421;49.732;20.078;2024-03-02T21:42:22;96225.84;;;7.92;74.76
24302;BME280;12421;49.732;20.078;2024-03-02T21:52:26;96228.28;;;7.93;75.36
24302;BME280;12421;49.732;20.078;2024-03-02T22:02:29;96227.20;;;7.96;75.64
24302;BME280;12421;49.732;20.078;2024-03-02T22:12:33;96231.70;;;7.85;75.79
24302;BME280;12421;49.732;20.078;2024-03-02T22:22:36;96234.89;;;7.81;76.11
24302;BME280;12421;49.732;20.078;2024-03-02T22:32:42;96232.20;;;7.72;76.09
24302;BME280;12421;49.732;20.078;2024-03-02T22:42:47;96229.98;;;7.66;76.41
24302;BME280;12421;49.732;20.078;2024-03-02T22:52:50;96231.89;;;7.37;76.83
24302;BME280;12421;49.732;20.078;2024-03-02T23:02:54;96228.63;;;7.11;77.43
24302;BME280;12421;49.732;20.078;2024-03-02T23:12:58;96221.60;;;6.95;78.12
24302;BME280;12421;49.732;20.078;2024-03-02T23:23:01;96222.78;;;7.00;78.32
24302;BME280;12421;49.732;20.078;2024-03-02T23:33:08;96220.65;;;6.84;78.51
24302;BME280;12421;49.732;20.078;2024-03-02T23:43:11;96226.36;;;6.89;78.58
24302;BME280;12421;49.732;20.078;2024-03-02T23:53:16;96226.86;;;6.90;79.13
